Time;durP1;ratioP1;P1;durP2;ratioP2;P2;SDS_P1;SDS_P2;PMS_P1;PMS_P2;Temp;Humidity;BMP_temperature;BMP_pressure;BME280_temperature;BME280_humidity;BME280_pressure;Samples;Min_cycle;Max_cycle;Signal;HPM_P1;HPM_P2
2021/12/20 00:01:21;;;;;;;39.67;15.07;;;4.70;99.90;;;;;;5011709;28;20197;-71
2021/12/20 00:03:46;;;;;;;37.00;15.17;;;4.70;99.90;;;;;;5041940;28;20515;-71
2021/12/20 00:06:12;;;;;;;34.03;15.80;;;4.70;99.90;;;;;;5042262;28;20187;-69
2021/12/20 00:08:37;;;;;;;33.90;14.50;;;4.70;99.90;;;;;;5030693;28;20660;-70
2021/12/20 00:11:04;;;;;;;36.30;16.47;;;4.70;99.90;;;;;;5030953;28;20214;-71
2021/12/20 00:13:29;;;;;;;32.13;14.90;;;4.70;99.90;;;;;;5026973;28;20847;-71
2021/12/20 00:15:55;;;;;;;33.47;15.47;;;4.70;99.90;;;;;;5030546;28;20403;-73
2021/12/20 00:18:21;;;;;;;35.47;15.27;;;4.70;99.90;;;;;;5022761;28;20179;-70
2021/12/20 00:20:46;;;;;;;33.37;15.50;;;4.70;99.90;;;;;;5009011;28;20203;-72
2021/12/20 00:23:12;;;;;;;35.77;14.80;;;4.70;99.90;;;;;;5009225;28;20213;-71
2021/12/20 00:25:38;;;;;;;35.17;14.80;;;4.70;99.90;;;;;;5009838;28;20552;-71
2021/12/20 00:28:03;;;;;;;30.47;14.70;;;4.80;99.90;;;;;;5009238;28;20556;-74
2021/12/20 00:30:29;;;;;;;28.77;14.30;;;4.90;99.90;;;;;;5025607;28;20295;-71
2021/12/20 00:32:55;;;;;;;30.33;14.93;;;5.00;99.90;;;;;;5027764;28;20185;-71
2021/12/20 00:35:24;;;;;;;32.70;15.00;;;5.00;99.90;;;;;;5043198;28;20165;-70
2021/12/20 00:40:34;;;;;;;30.40;13.60;;;4.80;99.90;;;;;;5032664;28;20455;-71
2021/12/20 00:43:01;;;;;;;32.57;14.57;;;4.70;99.90;;;;;;5029622;28;20417;-71
2021/12/20 00:45:33;;;;;;;35.30;15.13;;;4.80;99.90;;;;;;5033568;28;20182;-72
2021/12/20 00:47:59;;;;;;;28.40;13.03;;;4.80;99.90;;;;;;5029606;28;20415;-71
2021/12/20 00:50:26;;;;;;;27.03;13.13;;;4.70;99.90;;;;;;5029157;28;20895;-71
2021/12/20 00:52:53;;;;;;;28.33;13.47;;;4.70;99.90;;;;;;5028648;28;20427;-71
2021/12/20 00:55:20;;;;;;;39.47;14.83;;;4.70;99.90;;;;;;5029031;28;20424;-71
2021/12/20 00:57:47;;;;;;;34.30;14.50;;;4.90;99.90;;;;;;5029587;28;20428;-71
2021/12/20 01:00:16;;;;;;;33.57;14.50;;;4.80;99.90;;;;;;5014765;28;20425;-71
2021/12/20 01:02:42;;;;;;;32.10;14.80;;;4.80;99.90;;;;;;5029289;28;20416;-71
2021/12/20 01:05:08;;;;;;;33.10;15.47;;;4.80;99.90;;;;;;5042406;28;20840;-71
2021/12/20 01:07:34;;;;;;;36.77;14.37;;;4.80;99.90;;;;;;5042354;28;21120;-71
2021/12/20 01:10:03;;;;;;;28.30;13.63;;;4.80;99.90;;;;;;5028400;28;20465;-72
2021/12/20 01:12:35;;;;;;;26.77;12.33;;;4.80;99.90;;;;;;5037182;28;20197;-72
2021/12/20 01:15:01;;;;;;;31.20;13.73;;;4.80;99.90;;;;;;5035228;28;20440;-71
2021/12/20 01:17:27;;;;;;;29.40;13.80;;;4.80;99.90;;;;;;5028270;28;20436;-71
2021/12/20 01:19:53;;;;;;;31.80;14.60;;;4.80;99.90;;;;;;5027952;28;20507;-71
2021/12/20 01:22:19;;;;;;;31.40;14.63;;;4.80;99.90;;;;;;5029704;28;20197;-71
2021/12/20 01:24:44;;;;;;;30.40;13.87;;;5.00;99.90;;;;;;5029354;28;20498;-71
2021/12/20 01:27:10;;;;;;;36.97;14.53;;;4.70;99.90;;;;;;5028561;28;20257;-71
2021/12/20 01:29:35;;;;;;;26.20;13.50;;;4.80;99.90;;;;;;5028661;28;20189;-73
2021/12/20 01:32:01;;;;;;;25.67;13.10;;;4.80;99.90;;;;;;5031630;28;20196;-71
2021/12/20 01:34:26;;;;;;;34.23;14.27;;;4.80;99.90;;;;;;5038351;28;20534;-72
2021/12/20 01:36:52;;;;;;;30.33;13.83;;;4.80;99.90;;;;;;5048952;28;20180;-72
2021/12/20 01:39:18;;;;;;;30.90;13.37;;;4.70;99.90;;;;;;5047711;28;20173;-73
2021/12/20 01:41:44;;;;;;;30.17;13.37;;;4.80;99.90;;;;;;5028482;28;20572;-70
2021/12/20 01:44:13;;;;;;;25.97;12.87;;;4.70;99.90;;;;;;5029108;28;20375;-71
2021/12/20 01:46:38;;;;;;;26.50;12.93;;;4.80;99.90;;;;;;5027601;28;20419;-74
2021/12/20 01:49:08;;;;;;;28.27;13.60;;;4.70;99.90;;;;;;5028493;28;20412;-71
2021/12/20 01:54:02;;;;;;;31.23;12.57;;;4.70;99.90;;;;;;5028319;28;20508;-71
2021/12/20 01:56:29;;;;;;;29.90;13.00;;;4.70;99.90;;;;;;5028964;28;20451;-70
2021/12/20 01:59:03;;;;;;;24.43;12.67;;;4.70;99.90;;;;;;5024269;28;20174;-70
2021/12/20 02:01:29;;;;;;;29.10;13.67;;;4.70;99.90;;;;;;5010922;28;21155;-71
2021/12/20 02:03:58;;;;;;;28.50;13.10;;;4.80;99.90;;;;;;5026483;28;20541;-73
2021/12/20 02:06:30;;;;;;;28.10;13.50;;;4.70;99.90;;;;;;5015611;28;21135;-71
2021/12/20 02:08:58;;;;;;;27.90;13.53;;;4.70;99.90;;;;;;5009210;28;20409;-72
2021/12/20 02:11:24;;;;;;;26.70;13.00;;;4.80;99.90;;;;;;5022614;28;20460;-70
2021/12/20 02:13:50;;;;;;;27.77;13.57;;;4.70;99.90;;;;;;5022982;28;20447;-71
2021/12/20 02:16:18;;;;;;;26.13;12.93;;;4.80;99.90;;;;;;5028755;28;21126;-71
2021/12/20 02:18:44;;;;;;;26.47;12.53;;;4.60;99.90;;;;;;5019064;28;20421;-69
2021/12/20 02:21:10;;;;;;;28.53;12.53;;;4.70;99.90;;;;;;5008327;28;20926;-71
2021/12/20 02:23:36;;;;;;;25.43;12.73;;;4.70;99.90;;;;;;5008861;28;20453;-72
2021/12/20 02:26:03;;;;;;;24.67;12.33;;;4.70;99.90;;;;;;5025355;28;20236;-71
2021/12/20 02:28:35;;;;;;;27.93;12.90;;;4.70;99.90;;;;;;5027555;28;20854;-70
2021/12/20 02:39:17;;;;;;;26.20;13.07;;;4.70;99.90;;;;;;5028770;28;20450;-71
2021/12/20 02:41:43;;;;;;;24.03;12.73;;;4.70;99.90;;;;;;5032746;28;20832;-71
2021/12/20 02:44:16;;;;;;;27.73;13.00;;;4.80;99.90;;;;;;5038075;28;20510;-72
2021/12/20 02:49:27;;;;;;;23.57;12.20;;;4.80;99.90;;;;;;5027231;28;20412;-72
2021/12/20 02:52:06;;;;;;;29.90;12.73;;;4.70;99.90;;;;;;5028019;28;20475;-71
2021/12/20 02:54:32;;;;;;;24.40;12.27;;;4.70;99.90;;;;;;5022898;28;20421;-71
2021/12/20 02:56:59;;;;;;;25.00;12.40;;;4.70;99.90;;;;;;5016764;28;20514;-70
2021/12/20 02:59:24;;;;;;;24.27;11.90;;;4.70;99.90;;;;;;5027465;28;20420;-71
2021/12/20 03:01:57;;;;;;;24.87;12.50;;;4.70;99.90;;;;;;5025663;28;20876;-71
2021/12/20 03:04:23;;;;;;;25.70;11.93;;;4.80;99.90;;;;;;5034243;28;20180;-70
2021/12/20 03:06:54;;;;;;;25.30;11.70;;;4.80;99.90;;;;;;5026872;28;20829;-71
2021/12/20 03:09:25;;;;;;;23.00;11.60;;;4.80;99.90;;;;;;5027634;28;20448;-70
2021/12/20 03:11:51;;;;;;;25.57;11.77;;;4.80;99.90;;;;;;5031744;28;20550;-71
2021/12/20 03:14:26;;;;;;;23.67;11.40;;;4.80;99.90;;;;;;5038620;28;20769;-72
2021/12/20 03:16:52;;;;;;;28.13;12.43;;;1.70;99.90;;;;;;5039394;28;20426;-73
2021/12/20 03:19:18;;;;;;;25.33;12.27;;;4.80;99.90;;;;;;5026992;28;20408;-73
2021/12/20 03:21:43;;;;;;;24.70;11.97;;;4.80;99.90;;;;;;5024728;28;20526;-69
2021/12/20 03:24:09;;;;;;;25.20;11.67;;;4.80;99.90;;;;;;5025787;28;20540;-70
2021/12/20 03:26:35;;;;;;;25.33;11.80;;;4.80;99.90;;;;;;5022825;28;20182;-74
2021/12/20 03:29:01;;;;;;;25.00;12.10;;;4.80;99.90;;;;;;5006543;28;20308;-71
2021/12/20 03:31:27;;;;;;;25.03;12.33;;;4.80;99.90;;;;;;5009393;28;20223;-71
2021/12/20 03:33:52;;;;;;;26.67;12.90;;;4.80;99.90;;;;;;5035841;28;20785;-71
2021/12/20 03:36:18;;;;;;;27.17;12.00;;;4.90;99.90;;;;;;5035894;28;20204;-71
2021/12/20 03:38:43;;;;;;;27.10;12.37;;;4.90;99.90;;;;;;5027342;28;20185;-73
2021/12/20 03:41:09;;;;;;;26.70;12.27;;;4.80;99.90;;;;;;5027327;28;20861;-73
2021/12/20 03:43:35;;;;;;;22.37;11.77;;;4.80;99.90;;;;;;5027262;28;20178;-71
2021/12/20 03:46:05;;;;;;;25.83;12.57;;;4.80;99.90;;;;;;5025794;28;20184;-69
2021/12/20 03:48:31;;;;;;;26.33;12.40;;;4.90;99.90;;;;;;5006616;28;20308;-70
2021/12/20 03:51:01;;;;;;;25.83;12.83;;;4.90;99.90;;;;;;5007125;28;20564;-71
2021/12/20 03:53:27;;;;;;;26.70;12.50;;;4.90;99.90;;;;;;5007073;28;20950;-72
2021/12/20 03:55:53;;;;;;;25.20;11.57;;;4.80;99.90;;;;;;5007577;28;20776;-71
2021/12/20 03:58:19;;;;;;;26.87;12.30;;;4.80;99.90;;;;;;5022630;28;20408;-71
2021/12/20 04:00:46;;;;;;;22.53;11.80;;;4.80;99.90;;;;;;5025128;28;20636;-73
2021/12/20 04:03:13;;;;;;;24.17;11.70;;;4.80;99.90;;;;;;5021837;28;20512;-70
2021/12/20 04:05:39;;;;;;;24.20;11.30;;;4.80;99.90;;;;;;5031336;28;20518;-72
2021/12/20 04:08:06;;;;;;;24.20;12.60;;;4.80;99.90;;;;;;5038550;28;20422;-72
2021/12/20 04:10:32;;;;;;;24.50;12.00;;;4.80;99.90;;;;;;5017315;28;20472;-74
2021/12/20 04:12:58;;;;;;;25.03;11.67;;;;;;;;;;5005903;28;20453;-71
2021/12/20 04:15:24;;;;;;;23.97;11.87;;;4.80;99.90;;;;;;5006955;28;20170;-71
2021/12/20 04:17:49;;;;;;;24.63;12.37;;;4.70;99.90;;;;;;5019326;28;20416;-69
2021/12/20 04:20:15;;;;;;;25.43;12.20;;;4.70;99.90;;;;;;5024653;28;20515;-71
2021/12/20 04:22:40;;;;;;;29.47;12.47;;;4.70;99.90;;;;;;5026780;28;20244;-71
2021/12/20 04:25:06;;;;;;;21.93;12.00;;;4.70;99.90;;;;;;5026904;28;20193;-70
2021/12/20 04:27:32;;;;;;;26.97;12.27;;;;;;;;;;5014914;28;20186;-71
2021/12/20 04:29:58;;;;;;;25.20;11.73;;;;;;;;;;5005152;28;20821;-71
2021/12/20 04:32:24;;;;;;;21.00;10.63;;;4.90;99.90;;;;;;5024168;28;20508;-72
2021/12/20 04:34:49;;;;;;;29.77;12.70;;;4.90;99.90;;;;;;5038127;28;20169;-71
2021/12/20 04:37:15;;;;;;;24.37;11.80;;;4.80;99.90;;;;;;5038079;28;20189;-72
2021/12/20 04:39:41;;;;;;;23.83;11.20;;;4.80;99.90;;;;;;5028695;28;20169;-69
2021/12/20 04:42:08;;;;;;;26.20;11.70;;;4.80;99.90;;;;;;5043075;28;20211;-71
2021/12/20 04:44:34;;;;;;;24.53;11.33;;;4.80;99.90;;;;;;5031788;28;20167;-72
2021/12/20 04:47:00;;;;;;;24.93;11.63;;;4.80;99.90;;;;;;5028878;28;20493;-73
2021/12/20 04:49:26;;;;;;;24.97;12.00;;;4.80;99.90;;;;;;5029503;28;20739;-71
2021/12/20 04:51:55;;;;;;;25.10;12.90;;;4.90;99.90;;;;;;5029969;28;20460;-70
2021/12/20 04:54:21;;;;;;;24.70;11.90;;;4.90;99.90;;;;;;5030357;28;20177;-71
2021/12/20 04:56:47;;;;;;;27.60;12.30;;;4.90;99.90;;;;;;5026222;28;20417;-71
2021/12/20 04:59:13;;;;;;;24.70;12.10;;;4.90;99.90;;;;;;5010526;28;20487;-71
2021/12/20 05:01:38;;;;;;;22.40;12.13;;;4.90;99.90;;;;;;5013014;28;20299;-70
2021/12/20 05:04:04;;;;;;;28.93;12.60;;;4.80;99.90;;;;;;5037928;28;20256;-71
2021/12/20 05:06:33;;;;;;;23.87;11.40;;;4.80;99.90;;;;;;5047247;28;20232;-71
2021/12/20 05:08:58;;;;;;;23.67;12.00;;;4.80;99.90;;;;;;5029447;28;20194;-70
2021/12/20 05:11:25;;;;;;;27.93;12.20;;;4.80;99.90;;;;;;5029436;28;20495;-71
2021/12/20 05:13:52;;;;;;;27.37;13.37;;;4.80;99.90;;;;;;5036316;28;20174;-71
2021/12/20 05:16:18;;;;;;;24.60;12.53;;;4.80;99.90;;;;;;5045353;28;20484;-71
2021/12/20 05:18:43;;;;;;;23.77;12.67;;;4.80;99.90;;;;;;5028684;28;20494;-72
2021/12/20 05:21:09;;;;;;;28.83;13.33;;;4.80;99.90;;;;;;5029270;28;20201;-70
2021/12/20 05:23:34;;;;;;;30.23;13.80;;;4.90;99.90;;;;;;5028061;28;20174;-70
2021/12/20 05:26:00;;;;;;;26.90;13.00;;;4.90;99.90;;;;;;5029815;28;20173;-72
2021/12/20 05:28:25;;;;;;;28.07;13.40;;;4.80;99.90;;;;;;5012995;28;20178;-69
2021/12/20 05:30:52;;;;;;;27.80;13.00;;;4.80;99.90;;;;;;5009110;28;20264;-71
2021/12/20 05:33:20;;;;;;;26.87;13.20;;;4.80;99.90;;;;;;5033128;28;20596;-69
2021/12/20 05:35:45;;;;;;;29.30;13.00;;;4.90;99.90;;;;;;5029278;28;20433;-71
2021/12/20 05:38:11;;;;;;;28.60;13.67;;;4.80;99.90;;;;;;5015606;28;20444;-71
2021/12/20 05:40:37;;;;;;;39.20;18.57;;;4.90;99.90;;;;;;5009642;28;20258;-72
2021/12/20 05:43:03;;;;;;;30.30;15.00;;;4.90;99.90;;;;;;5009517;28;20514;-71
2021/12/20 05:45:29;;;;;;;32.17;15.40;;;4.90;99.90;;;;;;5009058;28;20649;-71
2021/12/20 05:47:55;;;;;;;27.07;14.67;;;4.80;99.90;;;;;;5019637;28;20420;-70
2021/12/20 05:50:21;;;;;;;29.87;14.20;;;4.90;99.90;;;;;;5028307;28;20268;-71
2021/12/20 05:52:47;;;;;;;28.93;14.17;;;4.90;99.90;;;;;;5036766;28;20635;-71
2021/12/20 05:55:14;;;;;;;28.87;14.47;;;4.90;99.90;;;;;;5029359;28;20421;-71
2021/12/20 05:57:39;;;;;;;25.73;14.30;;;4.90;99.90;;;;;;5028778;28;20569;-70
2021/12/20 06:00:12;;;;;;;27.67;14.53;;;4.90;99.90;;;;;;5028482;28;20563;-69
2021/12/20 06:02:38;;;;;;;31.47;14.67;;;4.90;99.90;;;;;;5033250;28;20673;-70
2021/12/20 06:05:03;;;;;;;30.23;15.00;;;4.90;99.90;;;;;;5028485;28;20431;-71
2021/12/20 06:07:29;;;;;;;26.40;13.47;;;4.90;99.90;;;;;;5025207;28;20443;-71
2021/12/20 06:09:55;;;;;;;26.93;13.27;;;5.10;99.90;;;;;;5027330;28;20468;-71
2021/12/20 06:12:20;;;;;;;26.73;13.63;;;4.90;99.90;;;;;;5021869;28;20273;-71
2021/12/20 06:14:46;;;;;;;27.30;13.30;;;4.90;99.90;;;;;;5021572;28;20308;-71
2021/12/20 06:17:11;;;;;;;30.20;13.27;;;4.90;99.90;;;;;;5026766;28;20177;-72
2021/12/20 06:19:37;;;;;;;32.37;14.27;;;4.90;99.90;;;;;;5038048;28;20154;-71
2021/12/20 06:22:04;;;;;;;26.60;14.00;;;4.90;99.90;;;;;;5048425;28;20196;-71
2021/12/20 06:24:29;;;;;;;28.73;13.30;;;4.90;99.90;;;;;;5040346;28;20223;-73
2021/12/20 06:26:55;;;;;;;32.20;14.53;;;4.90;99.90;;;;;;5019145;28;20421;-71
2021/12/20 06:29:20;;;;;;;29.37;13.77;;;4.90;99.90;;;;;;5022662;28;20539;-71
2021/12/20 06:31:46;;;;;;;29.50;14.67;;;4.90;99.90;;;;;;5031351;28;20284;-73
2021/12/20 06:34:12;;;;;;;29.33;13.00;;;4.90;99.90;;;;;;5036781;28;20165;-70
2021/12/20 06:36:38;;;;;;;29.07;13.50;;;4.80;99.90;;;;;;5021743;28;20198;-71
2021/12/20 06:39:05;;;;;;;35.77;14.60;;;4.80;99.90;;;;;;5018483;28;20181;-71
2021/12/20 06:41:31;;;;;;;33.10;14.77;;;4.70;99.90;;;;;;5027143;28;20443;-70
2021/12/20 06:43:56;;;;;;;28.00;13.37;;;4.70;99.90;;;;;;5031995;28;20444;-72
2021/12/20 06:46:26;;;;;;;28.23;14.40;;;4.80;99.90;;;;;;5027748;28;20462;-70
2021/12/20 06:48:51;;;;;;;31.50;15.07;;;4.80;99.90;;;;;;5026747;28;20257;-71
2021/12/20 15:26:06;;;;;;;31.33;11.17;;;3.90;99.90;;;;;;5086947;27;20567;-68
2021/12/20 15:28:32;;;;;;;25.47;11.33;;;3.80;99.90;;;;;;5084216;27;20589;-71
2021/12/20 15:30:58;;;;;;;31.10;10.80;;;3.90;99.90;;;;;;5046326;27;20750;-68
2021/12/20 15:33:24;;;;;;;21.43;10.30;;;4.00;99.90;;;;;;5056458;27;20469;-70
2021/12/20 15:35:49;;;;;;;29.03;12.67;;;4.00;99.90;;;;;;5103606;27;20279;-70
2021/12/20 15:38:15;;;;;;;22.53;10.90;;;4.10;99.90;;;;;;5065201;27;20514;-70
2021/12/20 15:40:41;;;;;;;24.33;11.67;;;4.20;99.90;;;;;;5056031;27;20204;-70
2021/12/20 15:43:11;;;;;;;30.23;12.07;;;4.20;99.90;;;;;;5059778;27;20176;-70
2021/12/20 15:45:38;;;;;;;31.53;11.53;;;4.20;99.90;;;;;;5058875;28;20200;-70
2021/12/20 15:48:03;;;;;;;19.13;11.57;;;4.30;99.90;;;;;;5063889;27;21097;-70
2021/12/20 15:50:29;;;;;;;25.17;11.30;;;4.40;99.90;;;;;;5062860;27;20476;-70
2021/12/20 15:52:55;;;;;;;39.00;11.40;;;4.40;99.90;;;;;;5058195;27;20177;-72
2021/12/20 15:55:20;;;;;;;27.40;11.67;;;4.50;99.90;;;;;;5064665;27;20209;-71
2021/12/20 15:57:47;;;;;;;25.17;11.37;;;4.40;99.90;;;;;;5063561;27;20224;-71
2021/12/20 16:00:13;;;;;;;19.40;11.10;;;4.40;99.90;;;;;;5061270;28;20634;-70
2021/12/20 16:02:39;;;;;;;24.90;11.87;;;4.40;99.90;;;;;;5070547;27;20449;-71
2021/12/20 16:05:05;;;;;;;21.70;11.43;;;4.30;99.90;;;;;;5061721;27;20466;-70
2021/12/20 16:07:31;;;;;;;31.43;13.10;;;4.30;99.90;;;;;;5064720;27;20510;-70
2021/12/20 16:09:57;;;;;;;23.17;11.00;;;4.20;99.90;;;;;;5060996;28;20514;-70
2021/12/20 16:12:22;;;;;;;28.77;11.77;;;4.10;99.90;;;;;;5107533;27;20197;-69
2021/12/20 16:14:48;;;;;;;23.17;12.07;;;4.20;99.90;;;;;;5059215;28;20256;-70
2021/12/20 16:17:13;;;;;;;25.33;12.43;;;3.90;99.90;;;;;;5060622;28;20203;-72
2021/12/20 16:19:39;;;;;;;22.20;11.63;;;4.10;99.90;;;;;;5062347;27;20854;-69
2021/12/20 16:22:04;;;;;;;28.67;11.93;;;3.80;99.90;;;;;;5057589;27;20205;-70
2021/12/20 16:24:34;;;;;;;27.57;12.00;;;3.80;99.90;;;;;;5053200;28;20571;-71
2021/12/20 16:27:00;;;;;;;28.60;12.30;;;3.70;99.90;;;;;;5064475;27;20173;-69
2021/12/20 16:29:26;;;;;;;21.93;11.23;;;3.90;99.90;;;;;;5071473;27;20427;-69
2021/12/20 16:31:53;;;;;;;23.23;12.03;;;3.60;99.90;;;;;;5061030;27;20907;-70
2021/12/20 16:34:19;;;;;;;23.73;13.03;;;3.80;99.90;;;;;;5064963;27;20423;-71
2021/12/20 16:36:45;;;;;;;26.63;12.83;;;3.50;99.90;;;;;;5056784;27;20857;-71
2021/12/20 16:39:11;;;;;;;31.10;13.40;;;3.50;99.90;;;;;;5080678;27;20451;-72
2021/12/20 16:41:36;;;;;;;27.30;13.30;;;3.40;99.90;;;;;;5046932;28;20317;-69
2021/12/20 16:44:04;;;;;;;29.83;14.40;;;3.40;99.90;;;;;;5045057;28;20288;-71
2021/12/20 16:46:31;;;;;;;33.87;15.90;;;3.30;99.90;;;;;;5046372;28;20314;-69
2021/12/20 16:48:59;;;;;;;38.07;17.10;;;3.40;99.90;;;;;;5045713;28;20539;-71
2021/12/20 16:51:25;;;;;;;36.67;18.57;;;3.20;99.90;;;;;;5049365;27;20440;-71
2021/12/20 16:53:51;;;;;;;37.83;19.67;;;3.10;99.90;;;;;;5045189;27;20439;-70
2021/12/20 16:56:16;;;;;;;46.60;22.50;;;3.50;99.90;;;;;;5046591;28;20177;-71
2021/12/20 16:58:42;;;;;;;47.33;22.30;;;3.10;99.90;;;;;;5083918;27;20431;-73
2021/12/20 17:01:08;;;;;;;42.03;22.27;;;3.00;99.90;;;;;;5052857;27;20288;-70
2021/12/20 17:06:11;;;;;;;39.60;20.13;;;2.90;99.90;;;;;;5050367;27;20527;-70
2021/12/20 17:08:39;;;;;;;45.90;22.33;;;2.70;99.90;;;;;;5078553;27;20483;-72
2021/12/20 17:11:05;;;;;;;45.70;22.70;;;2.70;99.90;;;;;;5046227;28;20860;-70
2021/12/20 17:13:30;;;;;;;58.70;28.43;;;2.90;99.90;;;;;;5045837;28;20424;-71
2021/12/20 17:15:56;;;;;;;90.60;36.67;;;-0.20;99.90;;;;;;5046394;28;20941;-71
2021/12/20 17:18:22;;;;;;;77.30;34.70;;;2.60;99.90;;;;;;5045525;28;20181;-71
2021/12/20 17:20:53;;;;;;;80.27;33.53;;;2.50;99.90;;;;;;5046536;28;20539;-71
2021/12/20 17:23:19;;;;;;;75.50;30.30;;;2.60;99.90;;;;;;5044993;28;20846;-70
2021/12/20 17:25:45;;;;;;;62.27;28.27;;;2.50;99.90;;;;;;5044623;28;20462;-70
2021/12/20 17:28:11;;;;;;;65.17;29.97;;;2.40;99.90;;;;;;5046411;28;20444;-71
2021/12/20 17:30:37;;;;;;;58.47;31.37;;;2.40;99.90;;;;;;5047482;27;20202;-71
2021/12/20 17:33:03;;;;;;;63.63;31.30;;;2.40;99.90;;;;;;5041417;27;20436;-70
2021/12/20 17:35:29;;;;;;;58.33;28.53;;;2.30;99.90;;;;;;5036993;28;20424;-71
2021/12/20 17:37:55;;;;;;;54.93;26.93;;;2.30;99.90;;;;;;5073658;27;20423;-69
2021/12/20 17:40:21;;;;;;;52.60;27.80;;;2.20;99.90;;;;;;5050137;27;20541;-69
2021/12/20 17:42:48;;;;;;;56.43;27.63;;;2.20;99.90;;;;;;5044158;28;20603;-71
2021/12/20 17:45:17;;;;;;;53.97;28.10;;;2.40;99.90;;;;;;5044511;27;20356;-70
2021/12/20 17:47:42;;;;;;;46.67;24.10;;;2.10;99.90;;;;;;5043791;28;20420;-70
2021/12/20 17:50:10;;;;;;;43.63;22.77;;;2.10;99.90;;;;;;5039330;28;20427;-70
2021/12/20 17:52:36;;;;;;;44.10;21.87;;;2.50;99.90;;;;;;5045113;28;20178;-70
2021/12/20 17:55:03;;;;;;;41.90;23.03;;;2.20;99.90;;;;;;5044997;28;20439;-71
2021/12/20 17:57:29;;;;;;;47.93;24.20;;;2.10;99.90;;;;;;5043956;27;20185;-70
2021/12/20 17:59:55;;;;;;;45.27;23.30;;;2.10;99.90;;;;;;5046103;28;20422;-70
2021/12/20 18:02:23;;;;;;;41.47;22.20;;;2.00;99.90;;;;;;5045720;28;20435;-69
2021/12/20 18:04:56;;;;;;;44.23;21.90;;;1.90;99.90;;;;;;5053341;27;20371;-69
2021/12/20 18:07:24;;;;;;;44.00;22.60;;;1.90;99.90;;;;;;5043236;28;20423;-71
2021/12/20 18:09:50;;;;;;;39.37;22.60;;;1.80;99.90;;;;;;5043954;28;20431;-70
2021/12/20 18:12:15;;;;;;;35.33;19.53;;;1.70;99.90;;;;;;5045149;28;20444;-70
2021/12/20 18:14:41;;;;;;;39.43;20.47;;;1.70;99.90;;;;;;5046496;27;20261;-69
2021/12/20 18:17:06;;;;;;;36.77;20.60;;;2.00;99.90;;;;;;5048723;27;20674;-71
2021/12/20 18:19:32;;;;;;;35.30;17.53;;;1.70;99.90;;;;;;5103245;27;20201;-69
2021/12/20 18:21:57;;;;;;;34.00;17.90;;;1.50;99.90;;;;;;5082330;27;20331;-70
2021/12/20 18:24:23;;;;;;;26.10;14.40;;;1.40;99.90;;;;;;5046551;27;20323;-70
2021/12/20 18:26:48;;;;;;;30.43;14.00;;;1.40;99.90;;;;;;5107139;27;20204;-70
2021/12/20 18:29:14;;;;;;;37.17;16.87;;;1.70;99.90;;;;;;5077014;27;20193;-70
2021/12/20 18:31:40;;;;;;;32.60;15.90;;;1.10;99.90;;;;;;5080739;27;20223;-70
2021/12/20 18:34:06;;;;;;;26.27;15.13;;;1.10;99.90;;;;;;5042436;28;20241;-72
2021/12/20 18:36:32;;;;;;;30.50;15.30;;;1.30;99.90;;;;;;5114615;27;20178;-73
2021/12/20 18:38:57;;;;;;;29.03;13.77;;;1.10;99.90;;;;;;5044513;28;20430;-70
2021/12/20 18:41:23;;;;;;;27.00;15.17;;;1.10;99.90;;;;;;5042810;28;20238;-72
2021/12/20 18:43:49;;;;;;;26.40;13.37;;;1.50;99.90;;;;;;5043994;28;20185;-71
2021/12/20 18:46:14;;;;;;;24.50;13.60;;;1.00;99.90;;;;;;5036521;28;20248;-72
2021/12/20 18:48:40;;;;;;;27.93;14.40;;;1.00;99.90;;;;;;5043641;28;20289;-71
2021/12/20 18:51:06;;;;;;;37.53;16.33;;;1.00;99.90;;;;;;5044025;28;20226;-73
2021/12/20 18:53:32;;;;;;;55.00;22.90;;;0.90;99.90;;;;;;5044557;28;20256;-71
2021/12/20 18:55:59;;;;;;;38.90;18.63;;;1.20;99.90;;;;;;5044780;28;20709;-71
2021/12/20 18:58:26;;;;;;;34.23;18.10;;;-0.60;99.90;;;;;;5043993;28;20878;-70
2021/12/20 19:00:52;;;;;;;37.33;18.10;;;0.90;99.90;;;;;;5043701;28;20439;-71
2021/12/20 19:03:17;;;;;;;37.60;18.37;;;0.80;99.90;;;;;;5035478;28;20431;-73
2021/12/20 19:05:50;;;;;;;46.13;19.87;;;0.80;99.90;;;;;;5033458;28;20262;-70
2021/12/20 19:08:20;;;;;;;33.27;18.30;;;0.80;99.90;;;;;;5040623;28;20257;-71
2021/12/20 19:10:57;;;;;;;37.60;17.77;;;0.80;99.90;;;;;;5044326;28;20451;-71
2021/12/20 19:13:30;;;;;;;54.90;25.80;;;0.70;99.90;;;;;;5041867;28;20422;-71
2021/12/20 19:15:57;;;;;;;51.80;23.10;;;0.90;99.90;;;;;;5044072;28;21005;-71
2021/12/20 19:18:25;;;;;;;99.77;37.83;;;0.70;99.90;;;;;;5040693;28;20516;-71
2021/12/20 19:20:51;;;;;;;103.30;40.30;;;0.60;99.90;;;;;;5043481;28;20424;-71
2021/12/20 19:23:17;;;;;;;86.27;36.10;;;0.60;99.90;;;;;;5044059;28;20423;-71
2021/12/20 19:25:43;;;;;;;63.13;29.07;;;0.50;99.90;;;;;;5043745;28;20627;-71
2021/12/20 19:28:09;;;;;;;38.57;19.47;;;0.60;99.90;;;;;;5041750;28;20483;-70
2021/12/20 19:30:35;;;;;;;29.30;15.23;;;0.60;99.90;;;;;;5043750;28;20197;-70
2021/12/20 19:33:01;;;;;;;20.47;12.00;;;0.60;99.90;;;;;;5036850;28;20246;-69
2021/12/20 19:35:28;;;;;;;22.40;11.40;;;0.50;99.90;;;;;;5031982;28;20412;-70
2021/12/20 19:37:53;;;;;;;30.27;12.13;;;0.40;99.90;;;;;;5035042;28;20177;-70
2021/12/20 19:40:19;;;;;;;19.10;10.73;;;0.40;99.90;;;;;;5035453;28;20420;-70
2021/12/20 19:42:45;;;;;;;25.37;12.53;;;0.80;99.90;;;;;;5041842;28;20203;-71
2021/12/20 19:45:10;;;;;;;23.60;13.70;;;0.50;99.90;;;;;;5041759;28;20229;-70
2021/12/20 19:47:38;;;;;;;25.53;13.70;;;0.40;99.90;;;;;;5042919;28;20169;-72
2021/12/20 19:50:04;;;;;;;24.70;14.00;;;0.40;99.90;;;;;;5042394;28;20245;-69
2021/12/20 19:52:30;;;;;;;21.00;11.13;;;0.40;99.90;;;;;;5043201;28;20906;-70
2021/12/20 19:54:57;;;;;;;22.70;12.87;;;0.70;99.90;;;;;;5042127;28;20430;-70
2021/12/20 19:57:23;;;;;;;25.67;13.50;;;0.30;99.90;;;;;;5042727;28;20236;-70
2021/12/20 19:59:49;;;;;;;14.67;9.67;;;0.70;99.90;;;;;;5043373;28;20414;-71
2021/12/20 20:02:15;;;;;;;21.90;10.13;;;0.20;99.90;;;;;;5040795;28;20474;-70
2021/12/20 20:04:41;;;;;;;20.40;10.17;;;0.20;99.90;;;;;;5051863;28;20292;-71
2021/12/20 20:07:12;;;;;;;19.87;10.80;;;0.40;99.90;;;;;;5043030;28;20177;-70
2021/12/20 20:09:38;;;;;;;17.73;10.50;;;0.30;99.90;;;;;;5043623;28;21265;-70
2021/12/20 20:12:06;;;;;;;24.40;9.80;;;0.00;99.90;;;;;;5040307;28;20448;-71
2021/12/20 20:14:32;;;;;;;22.73;10.03;;;0.00;99.90;;;;;;5042004;28;20519;-71
2021/12/20 20:16:57;;;;;;;13.80;8.80;;;0.00;99.90;;;;;;5040222;27;20479;-71
2021/12/20 20:19:25;;;;;;;17.57;8.67;;;0.20;99.90;;;;;;5149425;27;20923;-70
2021/12/20 20:21:51;;;;;;;16.60;8.13;;;-0.10;99.90;;;;;;5130724;27;20659;-70
2021/12/20 20:24:17;;;;;;;53.43;21.07;;;0.30;99.90;;;;;;5046691;28;20470;-71
2021/12/20 20:26:42;;;;;;;21.30;8.80;;;-0.10;99.90;;;;;;5045752;28;20496;-72
2021/12/20 20:29:13;;;;;;;26.50;10.03;;;0.10;99.90;;;;;;5046490;28;20176;-71
2021/12/20 20:31:40;;;;;;;21.90;11.07;;;-0.20;99.90;;;;;;5046686;28;20208;-72
2021/12/20 20:34:06;;;;;;;21.13;9.57;;;-0.20;99.90;;;;;;5071895;27;20507;-71
2021/12/20 20:36:35;;;;;;;16.20;8.20;;;-0.30;99.90;;;;;;5073081;27;20554;-70
2021/12/20 20:39:03;;;;;;;15.33;7.50;;;-0.20;99.90;;;;;;5034513;27;20473;-71
2021/12/20 20:41:29;;;;;;;14.30;7.53;;;-0.30;99.90;;;;;;5044195;28;21127;-71
2021/12/20 20:43:54;;;;;;;28.83;7.90;;;-0.30;99.90;;;;;;5045812;28;20434;-71
2021/12/20 20:46:22;;;;;;;17.90;8.40;;;-0.30;99.90;;;;;;5046589;28;20181;-70
2021/12/20 20:48:48;;;;;;;15.03;9.27;;;-0.30;99.90;;;;;;5044946;28;20580;-72
2021/12/20 20:51:14;;;;;;;26.03;11.90;;;-0.30;99.90;;;;;;5046043;28;20511;-70
2021/12/20 20:53:39;;;;;;;22.70;12.20;;;-0.30;99.90;;;;;;5046709;28;20184;-71
2021/12/20 20:56:07;;;;;;;22.70;10.87;;;0.10;99.90;;;;;;5044398;28;20457;-71
2021/12/20 20:58:33;;;;;;;25.97;12.67;;;-0.30;99.90;;;;;;5044114;28;20218;-72
2021/12/20 21:03:44;;;;;;;18.43;8.43;;;-0.20;99.90;;;;;;5036095;28;20246;-72
2021/12/20 21:06:09;;;;;;;21.97;8.97;;;-0.30;99.90;;;;;;5044246;28;20475;-70
2021/12/20 21:08:35;;;;;;;14.20;7.77;;;-0.30;99.90;;;;;;5043984;28;20211;-71
2021/12/20 21:11:01;;;;;;;14.47;8.17;;;-0.40;99.90;;;;;;5045816;28;20245;-72
2021/12/20 21:13:27;;;;;;;13.70;7.47;;;-0.40;99.90;;;;;;5045860;28;20863;-68
2021/12/20 21:15:52;;;;;;;16.00;7.97;;;-0.40;99.90;;;;;;5046106;28;20192;-71
2021/12/20 21:18:18;;;;;;;15.93;9.07;;;-0.40;99.90;;;;;;5044802;28;20208;-71
2021/12/20 21:20:43;;;;;;;27.00;10.83;;;-0.40;99.90;;;;;;5045739;28;20245;-70
2021/12/20 21:23:11;;;;;;;23.10;8.20;;;-0.40;99.90;;;;;;5040061;28;20299;-71
2021/12/20 21:25:37;;;;;;;12.93;7.30;;;-0.40;99.90;;;;;;5035045;28;20220;-70
2021/12/20 21:28:02;;;;;;;13.30;8.50;;;-0.50;99.90;;;;;;5030849;28;20412;-72
2021/12/20 21:30:28;;;;;;;16.47;7.00;;;-0.50;99.90;;;;;;5044170;28;20285;-70